AAL965 KSFO-KLAX
Flight info
| Callsign | AAL965 |
|---|---|
| Flight time | 0h 58m |
| Altitude | 41000 |
| Route | WESLA5 SUSEY EBAYE BURGL IRNMN2 |
| Aircraft | A332/H-SDE3GHIJ2J3J5M1RVWXY/LB2D1 |
Departure
| Time | 2026-04-25 20:38 |
|---|---|
| Airport | San Francisco International Airport (KSFO) |
Arrival
| Time | 2026-04-25 21:37 |
|---|---|
| Airport | Los Angeles International Airport (KLAX) |
| Time | Latitude | Longitude | Altitude | Speed | Heading |
|---|---|---|---|---|---|
| 2026-04-25 20:17 | 37.61162 | -122.38447 | 24 ft | 0 kts | 298° |
| 2026-04-25 20:27 | 37.61161 | -122.38445 | 24 ft | 2 kts | 298° |
| 2026-04-25 20:28 | 37.61150 | -122.38420 | 30 ft | 3 kts | 298° |
| 2026-04-25 20:28 | 37.61137 | -122.38401 | 30 ft | 4 kts | 9° |
| 2026-04-25 20:28 | 37.61115 | -122.38412 | 30 ft | 3 kts | 27° |
| 2026-04-25 20:28 | 37.61094 | -122.38426 | 30 ft | 1 kts | 27° |
| 2026-04-25 20:31 | 37.61120 | -122.38409 | 28 ft | 9 kts | 27° |
| 2026-04-25 20:31 | 37.61184 | -122.38366 | 29 ft | 12 kts | 31° |
| 2026-04-25 20:32 | 37.61230 | -122.38273 | 27 ft | 14 kts | 59° |
| 2026-04-25 20:32 | 37.61310 | -122.38197 | 25 ft | 16 kts | 28° |
| 2026-04-25 20:32 | 37.61414 | -122.38130 | 27 ft | 18 kts | 27° |
| 2026-04-25 20:32 | 37.61531 | -122.38052 | 28 ft | 20 kts | 27° |
| 2026-04-25 20:33 | 37.61639 | -122.37981 | 27 ft | 17 kts | 29° |
| 2026-04-25 20:33 | 37.61675 | -122.37851 | 27 ft | 18 kts | 97° |
| 2026-04-25 20:33 | 37.61657 | -122.37686 | 27 ft | 20 kts | 97° |
| 2026-04-25 20:33 | 37.61644 | -122.37566 | 25 ft | 22 kts | 97° |
| 2026-04-25 20:34 | 37.61616 | -122.37297 | 26 ft | 24 kts | 99° |
| 2026-04-25 20:34 | 37.61545 | -122.37096 | 28 ft | 26 kts | 117° |
| 2026-04-25 20:34 | 37.61447 | -122.36895 | 28 ft | 28 kts | 132° |
| 2026-04-25 20:34 | 37.61330 | -122.36699 | 29 ft | 29 kts | 117° |
| 2026-04-25 20:35 | 37.61242 | -122.36484 | 27 ft | 26 kts | 118° |
| 2026-04-25 20:35 | 37.61154 | -122.36276 | 28 ft | 28 kts | 118° |
| 2026-04-25 20:35 | 37.61075 | -122.36086 | 29 ft | 16 kts | 117° |
| 2026-04-25 20:35 | 37.61054 | -122.35977 | 24 ft | 12 kts | 84° |
| 2026-04-25 20:36 | 37.61086 | -122.35913 | 26 ft | 0 kts | 36° |
| 2026-04-25 20:36 | 37.61087 | -122.35912 | 25 ft | 1 kts | 36° |
| 2026-04-25 20:36 | 37.61133 | -122.35877 | 26 ft | 11 kts | 29° |
| 2026-04-25 20:36 | 37.61194 | -122.35888 | 26 ft | 10 kts | 302° |
| 2026-04-25 20:37 | 37.61221 | -122.35955 | 29 ft | 0 kts | 297° |
| 2026-04-25 20:37 | 37.61265 | -122.36062 | 29 ft | 47 kts | 297° |
| 2026-04-25 20:38 | 37.61534 | -122.36702 | 29 ft | 117 kts | 298° |
| 2026-04-25 20:38 | 37.62011 | -122.37826 | 163 ft | 165 kts | 297° |
| 2026-04-25 20:38 | 37.62523 | -122.39108 | 1135 ft | 159 kts | 295° |
| 2026-04-25 20:38 | 37.63055 | -122.40399 | 1793 ft | 180 kts | 296° |
| 2026-04-25 20:39 | 37.63696 | -122.41909 | 2231 ft | 208 kts | 296° |
| 2026-04-25 20:39 | 37.64389 | -122.43591 | 2915 ft | 220 kts | 295° |
| 2026-04-25 20:39 | 37.65143 | -122.45327 | 3675 ft | 231 kts | 297° |
| 2026-04-25 20:39 | 37.65670 | -122.46497 | 4335 ft | 232 kts | 297° |
| 2026-04-25 20:40 | 37.66659 | -122.48957 | 5526 ft | 244 kts | 287° |
| 2026-04-25 20:40 | 37.66757 | -122.51119 | 6174 ft | 260 kts | 256° |
| 2026-04-25 20:40 | 37.65875 | -122.53143 | 6984 ft | 271 kts | 225° |
| 2026-04-25 20:40 | 37.64232 | -122.54314 | 7842 ft | 280 kts | 193° |
| 2026-04-25 20:41 | 37.62298 | -122.54188 | 8890 ft | 281 kts | 162° |
| 2026-04-25 20:41 | 37.60475 | -122.53298 | 9975 ft | 282 kts | 156° |
| 2026-04-25 20:41 | 37.58644 | -122.52323 | 10670 ft | 296 kts | 158° |
| 2026-04-25 20:41 | 37.56652 | -122.51308 | 11077 ft | 319 kts | 158° |
| 2026-04-25 20:42 | 37.54542 | -122.50248 | 11679 ft | 332 kts | 158° |
| 2026-04-25 20:42 | 37.52364 | -122.49157 | 12442 ft | 340 kts | 158° |
| 2026-04-25 20:42 | 37.50162 | -122.47990 | 13266 ft | 347 kts | 153° |
| 2026-04-25 20:42 | 37.48160 | -122.46277 | 14046 ft | 353 kts | 137° |
| 2026-04-25 20:43 | 37.46421 | -122.44075 | 14867 ft | 355 kts | 131° |
| 2026-04-25 20:43 | 37.44747 | -122.41778 | 15753 ft | 356 kts | 131° |
| 2026-04-25 20:43 | 37.43073 | -122.39468 | 16632 ft | 358 kts | 131° |
| 2026-04-25 20:43 | 37.41386 | -122.37150 | 17461 ft | 361 kts | 131° |
| 2026-04-25 20:44 | 37.39675 | -122.34810 | 18279 ft | 364 kts | 130° |
| 2026-04-25 20:44 | 37.37952 | -122.32464 | 18946 ft | 368 kts | 130° |
| 2026-04-25 20:44 | 37.36203 | -122.30085 | 19553 ft | 373 kts | 130° |
| 2026-04-25 20:44 | 37.34428 | -122.27674 | 20131 ft | 379 kts | 130° |
| 2026-04-25 20:45 | 37.32621 | -122.25224 | 20697 ft | 385 kts | 130° |
| 2026-04-25 20:45 | 37.30784 | -122.22735 | 21230 ft | 392 kts | 131° |
| 2026-04-25 20:45 | 37.28916 | -122.20208 | 21767 ft | 398 kts | 131° |
| 2026-04-25 20:45 | 37.27027 | -122.17653 | 22386 ft | 401 kts | 132° |
| 2026-04-25 20:46 | 37.25120 | -122.15077 | 23025 ft | 405 kts | 132° |
| 2026-04-25 20:46 | 37.23184 | -122.12463 | 23483 ft | 412 kts | 133° |
| 2026-04-25 20:46 | 37.21218 | -122.09812 | 23948 ft | 416 kts | 133° |
| 2026-04-25 20:46 | 37.19242 | -122.07149 | 24503 ft | 417 kts | 133° |
| 2026-04-25 20:47 | 37.17278 | -122.04504 | 25262 ft | 412 kts | 134° |
| 2026-04-25 20:47 | 37.15324 | -122.01874 | 25907 ft | 412 kts | 134° |
| 2026-04-25 20:47 | 37.13367 | -121.99244 | 26432 ft | 414 kts | 134° |
| 2026-04-25 20:47 | 37.11395 | -121.96594 | 26939 ft | 416 kts | 135° |
| 2026-04-25 20:48 | 37.09423 | -121.93948 | 27472 ft | 417 kts | 135° |
| 2026-04-25 20:48 | 37.07458 | -121.91313 | 28005 ft | 418 kts | 135° |
| 2026-04-25 20:48 | 37.05471 | -121.88649 | 28538 ft | 419 kts | 136° |
| 2026-04-25 20:48 | 37.03476 | -121.85978 | 29052 ft | 421 kts | 136° |
| 2026-04-25 20:49 | 37.01473 | -121.83299 | 29552 ft | 422 kts | 136° |
| 2026-04-25 20:49 | 36.99460 | -121.80608 | 30045 ft | 424 kts | 136° |
| 2026-04-25 20:49 | 36.97438 | -121.77908 | 30375 ft | 428 kts | 136° |
| 2026-04-25 20:49 | 36.95393 | -121.75178 | 30722 ft | 432 kts | 137° |
| 2026-04-25 20:50 | 36.93328 | -121.72426 | 31056 ft | 435 kts | 137° |
| 2026-04-25 20:50 | 36.91249 | -121.69657 | 31407 ft | 438 kts | 137° |
| 2026-04-25 20:50 | 36.89153 | -121.66867 | 31738 ft | 442 kts | 137° |
| 2026-04-25 20:50 | 36.87041 | -121.64058 | 32109 ft | 444 kts | 137° |
| 2026-04-25 20:51 | 36.84925 | -121.61244 | 32609 ft | 443 kts | 138° |
| 2026-04-25 20:51 | 36.82815 | -121.58441 | 33008 ft | 445 kts | 138° |
| 2026-04-25 20:51 | 36.80683 | -121.55614 | 33384 ft | 447 kts | 138° |
| 2026-04-25 20:51 | 36.78556 | -121.52794 | 33907 ft | 445 kts | 139° |
| 2026-04-25 20:52 | 36.76438 | -121.49986 | 34343 ft | 443 kts | 139° |
| 2026-04-25 20:52 | 36.75038 | -121.48132 | 34591 ft | 443 kts | 139° |
| 2026-04-25 20:52 | 36.72208 | -121.44391 | 35063 ft | 444 kts | 139° |
| 2026-04-25 20:52 | 36.70088 | -121.41591 | 35370 ft | 445 kts | 139° |
| 2026-04-25 20:53 | 36.67961 | -121.38784 | 35704 ft | 446 kts | 139° |
| 2026-04-25 20:53 | 36.65831 | -121.35976 | 36019 ft | 447 kts | 139° |
| 2026-04-25 20:53 | 36.63695 | -121.33162 | 36326 ft | 447 kts | 139° |
| 2026-04-25 20:53 | 36.61554 | -121.30344 | 36643 ft | 448 kts | 139° |
| 2026-04-25 20:54 | 36.59405 | -121.27518 | 36963 ft | 449 kts | 139° |
| 2026-04-25 20:54 | 36.57262 | -121.24701 | 37285 ft | 449 kts | 139° |
| 2026-04-25 20:54 | 36.55138 | -121.21913 | 37555 ft | 451 kts | 139° |
| 2026-04-25 20:54 | 36.52977 | -121.19079 | 37823 ft | 452 kts | 139° |
| 2026-04-25 20:55 | 36.50818 | -121.16248 | 38177 ft | 451 kts | 139° |
| 2026-04-25 20:55 | 36.48654 | -121.13413 | 38495 ft | 451 kts | 140° |
| 2026-04-25 20:55 | 36.46490 | -121.10582 | 38755 ft | 452 kts | 140° |
| 2026-04-25 20:55 | 36.44319 | -121.07745 | 38980 ft | 453 kts | 140° |
| 2026-04-25 20:56 | 36.42178 | -121.04874 | 39194 ft | 455 kts | 138° |
| 2026-04-25 20:56 | 36.40080 | -121.01923 | 39421 ft | 456 kts | 137° |
| 2026-04-25 20:56 | 36.38010 | -120.98936 | 39649 ft | 457 kts | 136° |
| 2026-04-25 20:56 | 36.35949 | -120.95937 | 39837 ft | 458 kts | 136° |
| 2026-04-25 20:57 | 36.33878 | -120.92924 | 40000 ft | 460 kts | 136° |
| 2026-04-25 20:57 | 36.31790 | -120.89899 | 40178 ft | 461 kts | 137° |
| 2026-04-25 20:57 | 36.29698 | -120.86883 | 40413 ft | 462 kts | 137° |
| 2026-04-25 20:57 | 36.27602 | -120.83871 | 40646 ft | 462 kts | 137° |
| 2026-04-25 20:58 | 36.25499 | -120.80856 | 40858 ft | 462 kts | 137° |
| 2026-04-25 20:58 | 36.23384 | -120.77834 | 40943 ft | 466 kts | 137° |
| 2026-04-25 20:58 | 36.19095 | -120.71722 | 40950 ft | 472 kts | 137° |
| 2026-04-25 20:59 | 36.14793 | -120.65588 | 40954 ft | 472 kts | 137° |
| 2026-04-25 20:59 | 36.10485 | -120.59456 | 40950 ft | 471 kts | 137° |
| 2026-04-25 21:00 | 36.07633 | -120.55405 | 40957 ft | 471 kts | 137° |
| 2026-04-25 21:01 | 35.99737 | -120.44214 | 40962 ft | 470 kts | 137° |
| 2026-04-25 21:01 | 35.95463 | -120.38173 | 40956 ft | 471 kts | 138° |
| 2026-04-25 21:02 | 35.91111 | -120.32036 | 40958 ft | 472 kts | 138° |
| 2026-04-25 21:02 | 35.86650 | -120.26231 | 40963 ft | 461 kts | 150° |
| 2026-04-25 21:03 | 35.81339 | -120.21916 | 40961 ft | 456 kts | 155° |
| 2026-04-25 21:03 | 35.75932 | -120.17810 | 40950 ft | 457 kts | 155° |
| 2026-04-25 21:04 | 35.70515 | -120.13725 | 40944 ft | 457 kts | 155° |
| 2026-04-25 21:04 | 35.67813 | -120.11691 | 40715 ft | 452 kts | 155° |
| 2026-04-25 21:04 | 35.65144 | -120.09676 | 40470 ft | 448 kts | 156° |
| 2026-04-25 21:04 | 35.62501 | -120.07679 | 40232 ft | 445 kts | 156° |
| 2026-04-25 21:05 | 35.59869 | -120.05693 | 39997 ft | 444 kts | 156° |
| 2026-04-25 21:05 | 35.57240 | -120.03712 | 39738 ft | 443 kts | 156° |
| 2026-04-25 21:05 | 35.54614 | -120.01734 | 39514 ft | 443 kts | 156° |
| 2026-04-25 21:05 | 35.51984 | -119.99754 | 39277 ft | 443 kts | 156° |
| 2026-04-25 21:06 | 35.49363 | -119.97783 | 39066 ft | 441 kts | 156° |
| 2026-04-25 21:06 | 35.46760 | -119.95824 | 38808 ft | 436 kts | 156° |
| 2026-04-25 21:06 | 35.44175 | -119.93882 | 38338 ft | 436 kts | 156° |
| 2026-04-25 21:06 | 35.43302 | -119.93226 | 38167 ft | 435 kts | 156° |
| 2026-04-25 21:07 | 35.39023 | -119.90016 | 37434 ft | 432 kts | 156° |
| 2026-04-25 21:07 | 35.36466 | -119.88100 | 37004 ft | 430 kts | 156° |
| 2026-04-25 21:07 | 35.33923 | -119.86195 | 36561 ft | 428 kts | 156° |
| 2026-04-25 21:07 | 35.31385 | -119.84297 | 36114 ft | 427 kts | 156° |
| 2026-04-25 21:08 | 35.28870 | -119.82340 | 35639 ft | 430 kts | 153° |
| 2026-04-25 21:08 | 35.27264 | -119.80916 | 35316 ft | 432 kts | 151° |
| 2026-04-25 21:08 | 35.24868 | -119.78695 | 34825 ft | 432 kts | 150° |
| 2026-04-25 21:08 | 35.22477 | -119.76454 | 34224 ft | 434 kts | 150° |
| 2026-04-25 21:09 | 35.17653 | -119.71937 | 32871 ft | 437 kts | 150° |
| 2026-04-25 21:09 | 35.15243 | -119.69685 | 32217 ft | 437 kts | 150° |
| 2026-04-25 21:09 | 35.12825 | -119.67428 | 31553 ft | 437 kts | 150° |
| 2026-04-25 21:10 | 35.10407 | -119.65175 | 30868 ft | 438 kts | 150° |
| 2026-04-25 21:10 | 35.07993 | -119.62925 | 30379 ft | 433 kts | 150° |
| 2026-04-25 21:10 | 35.05612 | -119.60705 | 29930 ft | 428 kts | 150° |
| 2026-04-25 21:10 | 35.03260 | -119.58517 | 29389 ft | 423 kts | 150° |
| 2026-04-25 21:11 | 35.00938 | -119.56357 | 28911 ft | 417 kts | 150° |
| 2026-04-25 21:11 | 34.98647 | -119.54229 | 28445 ft | 411 kts | 151° |
| 2026-04-25 21:11 | 34.96387 | -119.52132 | 27979 ft | 406 kts | 151° |
| 2026-04-25 21:11 | 34.94148 | -119.50057 | 27509 ft | 402 kts | 151° |
| 2026-04-25 21:12 | 34.91935 | -119.48010 | 27059 ft | 397 kts | 152° |
| 2026-04-25 21:12 | 34.89738 | -119.46021 | 26610 ft | 393 kts | 152° |
| 2026-04-25 21:12 | 34.87542 | -119.44054 | 26127 ft | 389 kts | 152° |
| 2026-04-25 21:12 | 34.86072 | -119.42740 | 25823 ft | 387 kts | 152° |
| 2026-04-25 21:13 | 34.83218 | -119.40187 | 25231 ft | 382 kts | 153° |
| 2026-04-25 21:13 | 34.81081 | -119.38279 | 24786 ft | 379 kts | 153° |
| 2026-04-25 21:13 | 34.78967 | -119.36390 | 24330 ft | 377 kts | 153° |
| 2026-04-25 21:13 | 34.76858 | -119.34508 | 23882 ft | 375 kts | 153° |
| 2026-04-25 21:14 | 34.74776 | -119.32653 | 23704 ft | 364 kts | 153° |
| 2026-04-25 21:14 | 34.72737 | -119.30860 | 23270 ft | 362 kts | 153° |
| 2026-04-25 21:14 | 34.70699 | -119.29081 | 22821 ft | 359 kts | 153° |
| 2026-04-25 21:14 | 34.68681 | -119.27319 | 22425 ft | 355 kts | 153° |
| 2026-04-25 21:15 | 34.66691 | -119.25581 | 22039 ft | 350 kts | 153° |
| 2026-04-25 21:15 | 34.64720 | -119.23865 | 21646 ft | 348 kts | 153° |
| 2026-04-25 21:15 | 34.62748 | -119.22164 | 21253 ft | 348 kts | 153° |
| 2026-04-25 21:15 | 34.60776 | -119.20465 | 20859 ft | 347 kts | 153° |
| 2026-04-25 21:16 | 34.58813 | -119.18774 | 20456 ft | 346 kts | 153° |
| 2026-04-25 21:16 | 34.56855 | -119.17086 | 20056 ft | 343 kts | 152° |
| 2026-04-25 21:16 | 34.54925 | -119.15390 | 19673 ft | 341 kts | 152° |
| 2026-04-25 21:16 | 34.53012 | -119.13694 | 19287 ft | 341 kts | 152° |
| 2026-04-25 21:17 | 34.51100 | -119.12001 | 18879 ft | 339 kts | 151° |
| 2026-04-25 21:17 | 34.49199 | -119.10319 | 18483 ft | 337 kts | 151° |
| 2026-04-25 21:17 | 34.47305 | -119.08644 | 18083 ft | 336 kts | 151° |
| 2026-04-25 21:17 | 34.45425 | -119.06982 | 17668 ft | 335 kts | 150° |
| 2026-04-25 21:18 | 34.43540 | -119.05329 | 17269 ft | 333 kts | 151° |
| 2026-04-25 21:18 | 34.41657 | -119.03694 | 16893 ft | 333 kts | 151° |
| 2026-04-25 21:18 | 34.39785 | -119.02072 | 16566 ft | 328 kts | 151° |
| 2026-04-25 21:18 | 34.37955 | -119.00485 | 16308 ft | 320 kts | 151° |
| 2026-04-25 21:19 | 34.36159 | -118.98929 | 15782 ft | 316 kts | 151° |
| 2026-04-25 21:19 | 34.34379 | -118.97380 | 15387 ft | 315 kts | 150° |
| 2026-04-25 21:19 | 34.32625 | -118.95805 | 15011 ft | 313 kts | 150° |
| 2026-04-25 21:19 | 34.30888 | -118.94231 | 14625 ft | 312 kts | 150° |
| 2026-04-25 21:20 | 34.29159 | -118.92662 | 14256 ft | 309 kts | 151° |
| 2026-04-25 21:20 | 34.28024 | -118.91631 | 14020 ft | 308 kts | 151° |
| 2026-04-25 21:20 | 34.25764 | -118.89580 | 13488 ft | 305 kts | 150° |
| 2026-04-25 21:20 | 34.24054 | -118.88013 | 13107 ft | 304 kts | 150° |
| 2026-04-25 21:21 | 34.22374 | -118.86471 | 12749 ft | 302 kts | 150° |
| 2026-04-25 21:21 | 34.20706 | -118.84939 | 12650 ft | 301 kts | 149° |
| 2026-04-25 21:21 | 34.19058 | -118.83427 | 12550 ft | 301 kts | 149° |
| 2026-04-25 21:21 | 34.17370 | -118.81879 | 12420 ft | 301 kts | 149° |
| 2026-04-25 21:22 | 34.15772 | -118.80284 | 12070 ft | 302 kts | 145° |
| 2026-04-25 21:22 | 34.14207 | -118.78601 | 11705 ft | 300 kts | 144° |
| 2026-04-25 21:22 | 34.12658 | -118.76911 | 11375 ft | 299 kts | 143° |
| 2026-04-25 21:22 | 34.11124 | -118.75238 | 11046 ft | 296 kts | 143° |
| 2026-04-25 21:23 | 34.09602 | -118.73579 | 10713 ft | 293 kts | 142° |
| 2026-04-25 21:23 | 34.08098 | -118.71944 | 10382 ft | 290 kts | 142° |
| 2026-04-25 21:23 | 34.06628 | -118.70345 | 10257 ft | 277 kts | 142° |
| 2026-04-25 21:23 | 34.05204 | -118.68796 | 9993 ft | 277 kts | 142° |
| 2026-04-25 21:24 | 34.03821 | -118.67162 | 9642 ft | 281 kts | 132° |
| 2026-04-25 21:24 | 34.02913 | -118.65080 | 9321 ft | 285 kts | 108° |
| 2026-04-25 21:24 | 34.02559 | -118.62735 | 9008 ft | 285 kts | 99° |
| 2026-04-25 21:24 | 34.02343 | -118.60365 | 8689 ft | 284 kts | 98° |
| 2026-04-25 21:25 | 34.02142 | -118.58005 | 8373 ft | 283 kts | 98° |
| 2026-04-25 21:25 | 34.01937 | -118.55665 | 8169 ft | 275 kts | 98° |
| 2026-04-25 21:25 | 34.01736 | -118.53422 | 8098 ft | 264 kts | 98° |
| 2026-04-25 21:25 | 34.01536 | -118.51245 | 7989 ft | 259 kts | 98° |
| 2026-04-25 21:26 | 34.01338 | -118.49112 | 7906 ft | 254 kts | 98° |
| 2026-04-25 21:26 | 34.01138 | -118.46975 | 7613 ft | 258 kts | 98° |
| 2026-04-25 21:26 | 34.01185 | -118.44843 | 7543 ft | 253 kts | 83° |
| 2026-04-25 21:26 | 34.01494 | -118.42761 | 7381 ft | 250 kts | 79° |
| 2026-04-25 21:27 | 34.01853 | -118.40715 | 7137 ft | 249 kts | 79° |
| 2026-04-25 21:27 | 34.02215 | -118.38677 | 6874 ft | 248 kts | 79° |
| 2026-04-25 21:27 | 34.02563 | -118.36660 | 6714 ft | 243 kts | 81° |
| 2026-04-25 21:27 | 34.02823 | -118.34666 | 6530 ft | 238 kts | 85° |
| 2026-04-25 21:28 | 34.03036 | -118.32708 | 6315 ft | 234 kts | 85° |
| 2026-04-25 21:28 | 34.03238 | -118.30761 | 6067 ft | 234 kts | 84° |
| 2026-04-25 21:28 | 34.03449 | -118.28819 | 6002 ft | 234 kts | 84° |
| 2026-04-25 21:28 | 34.03665 | -118.26880 | 5996 ft | 234 kts | 84° |
| 2026-04-25 21:29 | 34.03883 | -118.24932 | 5805 ft | 235 kts | 84° |
| 2026-04-25 21:29 | 34.04103 | -118.22965 | 5446 ft | 239 kts | 84° |
| 2026-04-25 21:29 | 34.04326 | -118.20962 | 5084 ft | 244 kts | 85° |
| 2026-04-25 21:29 | 34.04554 | -118.18917 | 4705 ft | 248 kts | 84° |
| 2026-04-25 21:30 | 34.04786 | -118.16842 | 4319 ft | 251 kts | 85° |
| 2026-04-25 21:30 | 34.05014 | -118.14776 | 3958 ft | 251 kts | 86° |
| 2026-04-25 21:30 | 34.04864 | -118.12753 | 3580 ft | 237 kts | 112° |
| 2026-04-25 21:30 | 34.04316 | -118.11634 | 3318 ft | 224 kts | 136° |
| 2026-04-25 21:31 | 34.02618 | -118.10507 | 2819 ft | 209 kts | 168° |
| 2026-04-25 21:31 | 34.01206 | -118.10132 | 2601 ft | 206 kts | 172° |
| 2026-04-25 21:31 | 33.99806 | -118.10247 | 2578 ft | 204 kts | 202° |
| 2026-04-25 21:31 | 33.98676 | -118.11271 | 2582 ft | 206 kts | 226° |
| 2026-04-25 21:32 | 33.97763 | -118.12613 | 2589 ft | 204 kts | 231° |
| 2026-04-25 21:32 | 33.96909 | -118.13961 | 2592 ft | 201 kts | 231° |
| 2026-04-25 21:32 | 33.96237 | -118.15409 | 2587 ft | 197 kts | 248° |
| 2026-04-25 21:32 | 33.95915 | -118.17016 | 2591 ft | 198 kts | 258° |
| 2026-04-25 21:33 | 33.95749 | -118.18660 | 2595 ft | 199 kts | 260° |
| 2026-04-25 21:33 | 33.95587 | -118.20315 | 2598 ft | 199 kts | 260° |
| 2026-04-25 21:33 | 33.95418 | -118.21972 | 2599 ft | 200 kts | 260° |
| 2026-04-25 21:33 | 33.95245 | -118.23640 | 2549 ft | 200 kts | 259° |
| 2026-04-25 21:34 | 33.95072 | -118.25299 | 2290 ft | 200 kts | 259° |
| 2026-04-25 21:34 | 33.94902 | -118.26952 | 2024 ft | 197 kts | 260° |
| 2026-04-25 21:34 | 33.94738 | -118.28564 | 1734 ft | 190 kts | 259° |
| 2026-04-25 21:34 | 33.94585 | -118.30062 | 1478 ft | 175 kts | 258° |
| 2026-04-25 21:35 | 33.94425 | -118.31584 | 1237 ft | 183 kts | 259° |
| 2026-04-25 21:35 | 33.94280 | -118.33029 | 1005 ft | 166 kts | 259° |
| 2026-04-25 21:35 | 33.94143 | -118.34350 | 774 ft | 152 kts | 260° |
| 2026-04-25 21:35 | 33.94018 | -118.35566 | 567 ft | 140 kts | 261° |
| 2026-04-25 21:36 | 33.93898 | -118.36678 | 383 ft | 129 kts | 263° |
| 2026-04-25 21:36 | 33.93787 | -118.37721 | 217 ft | 123 kts | 259° |
| 2026-04-25 21:36 | 33.93689 | -118.38739 | 110 ft | 118 kts | 259° |
| 2026-04-25 21:36 | 33.93599 | -118.39586 | 99 ft | 77 kts | 263° |
| 2026-04-25 21:37 | 33.93562 | -118.40022 | 100 ft | 39 kts | 269° |
| 2026-04-25 21:37 | 33.93583 | -118.40225 | 100 ft | 30 kts | 285° |
| 2026-04-25 21:37 | 33.93626 | -118.40397 | 100 ft | 15 kts | 276° |
| 2026-04-25 21:37 | 33.93617 | -118.40524 | 98 ft | 16 kts | 262° |
| 2026-04-25 21:38 | 33.93602 | -118.40658 | 98 ft | 17 kts | 262° |
| 2026-04-25 21:38 | 33.93595 | -118.40798 | 100 ft | 17 kts | 278° |
| 2026-04-25 21:38 | 33.93658 | -118.40897 | 101 ft | 15 kts | 339° |
| 2026-04-25 21:38 | 33.93749 | -118.40910 | 99 ft | 5 kts | 356° |
| 2026-04-25 21:39 | 33.93750 | -118.40910 | 99 ft | 0 kts | 356° |
| 2026-04-25 21:39 | 33.93751 | -118.40910 | 99 ft | 2 kts | 356° |
| 2026-04-25 21:39 | 33.93782 | -118.40913 | 98 ft | 7 kts | 355° |
| 2026-04-25 21:39 | 33.93841 | -118.40915 | 100 ft | 10 kts | 10° |
| 2026-04-25 21:40 | 33.93877 | -118.40851 | 100 ft | 8 kts | 79° |
| 2026-04-25 21:40 | 33.93893 | -118.40784 | 99 ft | 8 kts | 54° |
| 2026-04-25 21:40 | 33.93936 | -118.40735 | 98 ft | 5 kts | 42° |
| 2026-04-25 21:40 | 33.93947 | -118.40724 | 100 ft | 2 kts | 42° |
| 2026-04-25 21:41 | 33.93947 | -118.40723 | 100 ft | 0 kts | 42° |